sensor_id;sensor_type;location;lat;lon;timestamp;P1;durP1;ratioP1;P2;durP2;ratioP2
34317;SDS011;20582;52.196;20.952;2023-08-12T00:01:03;21.75;;;8.18;;
34317;SDS011;20582;52.196;20.952;2023-08-12T00:03:29;26.15;;;8.60;;
34317;SDS011;20582;52.196;20.952;2023-08-12T00:05:55;23.38;;;7.75;;
34317;SDS011;20582;52.196;20.952;2023-08-12T00:08:21;17.50;;;7.10;;
34317;SDS011;20582;52.196;20.952;2023-08-12T00:10:47;16.00;;;6.30;;
34317;SDS011;20582;52.196;20.952;2023-08-12T00:13:13;18.20;;;5.93;;
34317;SDS011;20582;52.196;20.952;2023-08-12T00:15:42;16.58;;;6.38;;
34317;SDS011;20582;52.196;20.952;2023-08-12T00:18:08;21.40;;;5.93;;
34317;SDS011;20582;52.196;20.952;2023-08-12T00:20:34;15.82;;;6.00;;
34317;SDS011;20582;52.196;20.952;2023-08-12T00:23:02;13.38;;;6.03;;
34317;SDS011;20582;52.196;20.952;2023-08-12T00:25:28;18.85;;;6.13;;
34317;SDS011;20582;52.196;20.952;2023-08-12T00:27:54;20.75;;;6.18;;
34317;SDS011;20582;52.196;20.952;2023-08-12T00:30:20;15.10;;;6.22;;
34317;SDS011;20582;52.196;20.952;2023-08-12T00:32:46;20.88;;;6.45;;
34317;SDS011;20582;52.196;20.952;2023-08-12T00:35:12;15.23;;;5.88;;
34317;SDS011;20582;52.196;20.952;2023-08-12T00:37:38;18.52;;;6.45;;
34317;SDS011;20582;52.196;20.952;2023-08-12T00:40:04;17.50;;;6.55;;
34317;SDS011;20582;52.196;20.952;2023-08-12T00:42:31;23.25;;;6.50;;
34317;SDS011;20582;52.196;20.952;2023-08-12T00:44:57;19.45;;;6.18;;
34317;SDS011;20582;52.196;20.952;2023-08-12T00:47:23;21.23;;;6.22;;
34317;SDS011;20582;52.196;20.952;2023-08-12T00:49:50;16.02;;;6.43;;
34317;SDS011;20582;52.196;20.952;2023-08-12T00:52:16;19.83;;;6.50;;
34317;SDS011;20582;52.196;20.952;2023-08-12T00:54:42;21.10;;;6.88;;
34317;SDS011;20582;52.196;20.952;2023-08-12T00:57:09;26.20;;;6.25;;
34317;SDS011;20582;52.196;20.952;2023-08-12T00:59:35;20.52;;;6.75;;
34317;SDS011;20582;52.196;20.952;2023-08-12T01:02:02;22.08;;;7.05;;
34317;SDS011;20582;52.196;20.952;2023-08-12T01:04:29;19.27;;;7.32;;
34317;SDS011;20582;52.196;20.952;2023-08-12T01:06:55;17.40;;;6.18;;
34317;SDS011;20582;52.196;20.952;2023-08-12T01:09:21;17.95;;;6.85;;
34317;SDS011;20582;52.196;20.952;2023-08-12T01:11:54;19.42;;;6.97;;
34317;SDS011;20582;52.196;20.952;2023-08-12T01:17:02;17.40;;;6.35;;
34317;SDS011;20582;52.196;20.952;2023-08-12T01:19:32;19.42;;;7.22;;
34317;SDS011;20582;52.196;20.952;2023-08-12T01:21:59;20.25;;;6.80;;
34317;SDS011;20582;52.196;20.952;2023-08-12T01:24:26;16.40;;;7.43;;
34317;SDS011;20582;52.196;20.952;2023-08-12T01:26:52;22.42;;;6.40;;
34317;SDS011;20582;52.196;20.952;2023-08-12T01:29:20;18.00;;;6.50;;
34317;SDS011;20582;52.196;20.952;2023-08-12T01:31:51;17.88;;;6.65;;
34317;SDS011;20582;52.196;20.952;2023-08-12T01:34:22;18.48;;;7.30;;
34317;SDS011;20582;52.196;20.952;2023-08-12T01:36:54;23.15;;;7.88;;
34317;SDS011;20582;52.196;20.952;2023-08-12T01:39:21;15.25;;;6.75;;
34317;SDS011;20582;52.196;20.952;2023-08-12T01:41:47;17.90;;;7.30;;
34317;SDS011;20582;52.196;20.952;2023-08-12T01:44:13;13.45;;;6.97;;
34317;SDS011;20582;52.196;20.952;2023-08-12T01:46:39;17.88;;;6.38;;
34317;SDS011;20582;52.196;20.952;2023-08-12T01:49:07;21.48;;;7.68;;
34317;SDS011;20582;52.196;20.952;2023-08-12T01:51:34;18.63;;;7.28;;
34317;SDS011;20582;52.196;20.952;2023-08-12T01:54:00;17.50;;;7.00;;
34317;SDS011;20582;52.196;20.952;2023-08-12T01:56:25;16.92;;;7.00;;
34317;SDS011;20582;52.196;20.952;2023-08-12T01:58:51;21.88;;;7.53;;
34317;SDS011;20582;52.196;20.952;2023-08-12T02:01:17;15.88;;;7.85;;
34317;SDS011;20582;52.196;20.952;2023-08-12T02:03:43;17.25;;;7.32;;
34317;SDS011;20582;52.196;20.952;2023-08-12T02:06:09;16.38;;;7.22;;
34317;SDS011;20582;52.196;20.952;2023-08-12T02:08:35;21.15;;;7.97;;
34317;SDS011;20582;52.196;20.952;2023-08-12T02:11:01;18.40;;;8.00;;
34317;SDS011;20582;52.196;20.952;2023-08-12T02:13:27;20.75;;;7.43;;
34317;SDS011;20582;52.196;20.952;2023-08-12T02:15:53;16.45;;;7.93;;
34317;SDS011;20582;52.196;20.952;2023-08-12T02:18:19;16.13;;;7.20;;
34317;SDS011;20582;52.196;20.952;2023-08-12T02:20:46;15.90;;;7.88;;
34317;SDS011;20582;52.196;20.952;2023-08-12T02:23:13;19.17;;;8.23;;
34317;SDS011;20582;52.196;20.952;2023-08-12T02:25:39;21.77;;;9.38;;
34317;SDS011;20582;52.196;20.952;2023-08-12T02:28:05;19.02;;;8.52;;
34317;SDS011;20582;52.196;20.952;2023-08-12T02:30:31;17.42;;;8.85;;
34317;SDS011;20582;52.196;20.952;2023-08-12T02:32:58;21.33;;;8.65;;
34317;SDS011;20582;52.196;20.952;2023-08-12T02:35:24;20.25;;;7.90;;
34317;SDS011;20582;52.196;20.952;2023-08-12T02:37:50;20.15;;;8.38;;
34317;SDS011;20582;52.196;20.952;2023-08-12T02:40:16;19.75;;;8.70;;
34317;SDS011;20582;52.196;20.952;2023-08-12T02:42:42;20.92;;;9.50;;
34317;SDS011;20582;52.196;20.952;2023-08-12T02:45:08;24.63;;;9.65;;
34317;SDS011;20582;52.196;20.952;2023-08-12T02:47:34;21.67;;;10.52;;
34317;SDS011;20582;52.196;20.952;2023-08-12T02:50:00;18.73;;;8.98;;
34317;SDS011;20582;52.196;20.952;2023-08-12T02:52:26;20.15;;;9.10;;
34317;SDS011;20582;52.196;20.952;2023-08-12T02:54:52;21.52;;;9.75;;
34317;SDS011;20582;52.196;20.952;2023-08-12T02:57:18;21.27;;;9.70;;
34317;SDS011;20582;52.196;20.952;2023-08-12T02:59:44;22.85;;;9.90;;
34317;SDS011;20582;52.196;20.952;2023-08-12T03:02:09;24.02;;;9.57;;
34317;SDS011;20582;52.196;20.952;2023-08-12T03:04:35;21.02;;;9.38;;
34317;SDS011;20582;52.196;20.952;2023-08-12T03:07:01;18.60;;;9.70;;
34317;SDS011;20582;52.196;20.952;2023-08-12T03:09:28;17.42;;;9.10;;
34317;SDS011;20582;52.196;20.952;2023-08-12T03:11:53;18.58;;;10.13;;
34317;SDS011;20582;52.196;20.952;2023-08-12T03:14:19;17.55;;;9.38;;
34317;SDS011;20582;52.196;20.952;2023-08-12T03:16:45;22.13;;;10.50;;
34317;SDS011;20582;52.196;20.952;2023-08-12T03:19:11;23.00;;;10.13;;
34317;SDS011;20582;52.196;20.952;2023-08-12T03:21:37;17.73;;;9.48;;
34317;SDS011;20582;52.196;20.952;2023-08-12T03:24:03;20.20;;;9.70;;
34317;SDS011;20582;52.196;20.952;2023-08-12T03:26:30;22.20;;;10.02;;
34317;SDS011;20582;52.196;20.952;2023-08-12T03:28:56;20.63;;;9.98;;
34317;SDS011;20582;52.196;20.952;2023-08-12T03:31:21;19.27;;;9.55;;
34317;SDS011;20582;52.196;20.952;2023-08-12T03:33:47;18.98;;;9.75;;
34317;SDS011;20582;52.196;20.952;2023-08-12T03:36:13;18.58;;;9.10;;
34317;SDS011;20582;52.196;20.952;2023-08-12T03:38:39;17.85;;;9.80;;
34317;SDS011;20582;52.196;20.952;2023-08-12T03:41:06;19.13;;;10.38;;
34317;SDS011;20582;52.196;20.952;2023-08-12T03:43:32;22.77;;;9.55;;
34317;SDS011;20582;52.196;20.952;2023-08-12T03:45:58;19.88;;;10.40;;
34317;SDS011;20582;52.196;20.952;2023-08-12T03:48:24;23.85;;;9.95;;
34317;SDS011;20582;52.196;20.952;2023-08-12T03:50:51;20.67;;;9.70;;
34317;SDS011;20582;52.196;20.952;2023-08-12T03:53:16;16.27;;;9.10;;
34317;SDS011;20582;52.196;20.952;2023-08-12T03:55:42;18.85;;;9.30;;
34317;SDS011;20582;52.196;20.952;2023-08-12T03:58:09;22.05;;;9.23;;
34317;SDS011;20582;52.196;20.952;2023-08-12T04:00:35;19.13;;;9.45;;
34317;SDS011;20582;52.196;20.952;2023-08-12T04:03:05;18.58;;;9.23;;
34317;SDS011;20582;52.196;20.952;2023-08-12T04:05:31;17.08;;;9.35;;
34317;SDS011;20582;52.196;20.952;2023-08-12T04:07:57;18.10;;;8.88;;
34317;SDS011;20582;52.196;20.952;2023-08-12T04:10:23;19.17;;;8.65;;
34317;SDS011;20582;52.196;20.952;2023-08-12T04:12:49;17.25;;;8.95;;
34317;SDS011;20582;52.196;20.952;2023-08-12T04:15:15;16.85;;;9.20;;
34317;SDS011;20582;52.196;20.952;2023-08-12T04:17:41;15.55;;;8.65;;
34317;SDS011;20582;52.196;20.952;2023-08-12T04:20:08;18.17;;;8.77;;
34317;SDS011;20582;52.196;20.952;2023-08-12T04:22:34;22.75;;;8.82;;
34317;SDS011;20582;52.196;20.952;2023-08-12T04:25:00;18.15;;;8.95;;
34317;SDS011;20582;52.196;20.952;2023-08-12T04:27:26;21.33;;;10.07;;
34317;SDS011;20582;52.196;20.952;2023-08-12T04:29:52;18.73;;;9.35;;
34317;SDS011;20582;52.196;20.952;2023-08-12T04:32:18;20.85;;;8.63;;
34317;SDS011;20582;52.196;20.952;2023-08-12T04:34:44;21.27;;;9.05;;
34317;SDS011;20582;52.196;20.952;2023-08-12T04:37:10;15.07;;;8.13;;
34317;SDS011;20582;52.196;20.952;2023-08-12T04:39:36;17.73;;;8.60;;
34317;SDS011;20582;52.196;20.952;2023-08-12T04:42:02;21.92;;;8.48;;
34317;SDS011;20582;52.196;20.952;2023-08-12T04:44:28;22.65;;;8.77;;
34317;SDS011;20582;52.196;20.952;2023-08-12T04:46:54;17.33;;;8.18;;
34317;SDS011;20582;52.196;20.952;2023-08-12T04:49:20;16.63;;;7.97;;
34317;SDS011;20582;52.196;20.952;2023-08-12T04:51:48;17.83;;;7.80;;
34317;SDS011;20582;52.196;20.952;2023-08-12T04:54:17;16.00;;;7.97;;
34317;SDS011;20582;52.196;20.952;2023-08-12T04:56:43;19.25;;;7.93;;
34317;SDS011;20582;52.196;20.952;2023-08-12T04:59:09;21.90;;;7.82;;
34317;SDS011;20582;52.196;20.952;2023-08-12T05:01:35;21.55;;;8.05;;
34317;SDS011;20582;52.196;20.952;2023-08-12T05:04:02;20.27;;;7.72;;
34317;SDS011;20582;52.196;20.952;2023-08-12T05:06:28;14.43;;;8.02;;
34317;SDS011;20582;52.196;20.952;2023-08-12T05:08:55;18.48;;;7.80;;
34317;SDS011;20582;52.196;20.952;2023-08-12T05:11:21;21.52;;;8.65;;
34317;SDS011;20582;52.196;20.952;2023-08-12T05:13:47;19.50;;;7.97;;
34317;SDS011;20582;52.196;20.952;2023-08-12T05:16:13;19.55;;;7.68;;
34317;SDS011;20582;52.196;20.952;2023-08-12T05:18:39;19.42;;;7.65;;
34317;SDS011;20582;52.196;20.952;2023-08-12T05:21:05;18.70;;;7.78;;
34317;SDS011;20582;52.196;20.952;2023-08-12T05:23:31;15.73;;;6.93;;
34317;SDS011;20582;52.196;20.952;2023-08-12T05:25:57;18.55;;;7.40;;
34317;SDS011;20582;52.196;20.952;2023-08-12T05:28:22;17.33;;;6.75;;
34317;SDS011;20582;52.196;20.952;2023-08-12T05:30:48;13.32;;;6.47;;
34317;SDS011;20582;52.196;20.952;2023-08-12T05:33:14;16.40;;;7.03;;
34317;SDS011;20582;52.196;20.952;2023-08-12T05:35:40;15.98;;;5.80;;
34317;SDS011;20582;52.196;20.952;2023-08-12T05:38:06;14.05;;;6.10;;
34317;SDS011;20582;52.196;20.952;2023-08-12T05:40:32;15.25;;;6.07;;
34317;SDS011;20582;52.196;20.952;2023-08-12T05:42:58;15.45;;;5.63;;
34317;SDS011;20582;52.196;20.952;2023-08-12T05:45:24;17.98;;;6.60;;
34317;SDS011;20582;52.196;20.952;2023-08-12T05:47:50;15.80;;;6.75;;
34317;SDS011;20582;52.196;20.952;2023-08-12T05:50:16;17.77;;;6.40;;
34317;SDS011;20582;52.196;20.952;2023-08-12T05:52:43;15.65;;;5.47;;
34317;SDS011;20582;52.196;20.952;2023-08-12T05:55:09;14.63;;;6.53;;
34317;SDS011;20582;52.196;20.952;2023-08-12T05:57:35;15.60;;;5.68;;
34317;SDS011;20582;52.196;20.952;2023-08-12T06:00:01;15.13;;;5.60;;
34317;SDS011;20582;52.196;20.952;2023-08-12T06:02:27;15.32;;;6.00;;
34317;SDS011;20582;52.196;20.952;2023-08-12T06:04:53;12.07;;;5.63;;
34317;SDS011;20582;52.196;20.952;2023-08-12T06:07:19;15.02;;;5.82;;
34317;SDS011;20582;52.196;20.952;2023-08-12T06:09:45;13.35;;;5.43;;
34317;SDS011;20582;52.196;20.952;2023-08-12T06:12:11;9.93;;;5.50;;
34317;SDS011;20582;52.196;20.952;2023-08-12T06:14:37;10.10;;;5.07;;
34317;SDS011;20582;52.196;20.952;2023-08-12T06:17:04;12.95;;;5.18;;
34317;SDS011;20582;52.196;20.952;2023-08-12T06:19:30;12.43;;;4.72;;
34317;SDS011;20582;52.196;20.952;2023-08-12T06:21:56;10.40;;;4.70;;
34317;SDS011;20582;52.196;20.952;2023-08-12T06:24:22;13.25;;;4.93;;
34317;SDS011;20582;52.196;20.952;2023-08-12T06:26:48;11.95;;;5.25;;
34317;SDS011;20582;52.196;20.952;2023-08-12T06:29:13;13.00;;;4.78;;
34317;SDS011;20582;52.196;20.952;2023-08-12T06:31:39;14.15;;;4.40;;
34317;SDS011;20582;52.196;20.952;2023-08-12T06:34:05;8.13;;;3.90;;
34317;SDS011;20582;52.196;20.952;2023-08-12T06:36:32;9.55;;;4.05;;
34317;SDS011;20582;52.196;20.952;2023-08-12T06:38:58;10.95;;;4.10;;
34317;SDS011;20582;52.196;20.952;2023-08-12T06:41:24;12.75;;;4.13;;
34317;SDS011;20582;52.196;20.952;2023-08-12T06:43:50;9.27;;;3.67;;
34317;SDS011;20582;52.196;20.952;2023-08-12T06:46:16;11.18;;;3.90;;
34317;SDS011;20582;52.196;20.952;2023-08-12T06:48:42;10.13;;;4.38;;
34317;SDS011;20582;52.196;20.952;2023-08-12T06:51:08;13.13;;;4.22;;
34317;SDS011;20582;52.196;20.952;2023-08-12T06:53:37;11.82;;;4.95;;
34317;SDS011;20582;52.196;20.952;2023-08-12T06:56:03;10.13;;;4.32;;
34317;SDS011;20582;52.196;20.952;2023-08-12T06:58:29;10.43;;;3.95;;
34317;SDS011;20582;52.196;20.952;2023-08-12T07:00:56;9.27;;;3.50;;
34317;SDS011;20582;52.196;20.952;2023-08-12T07:03:24;10.02;;;3.42;;
34317;SDS011;20582;52.196;20.952;2023-08-12T07:05:50;10.60;;;3.20;;
34317;SDS011;20582;52.196;20.952;2023-08-12T07:08:16;8.05;;;3.58;;
34317;SDS011;20582;52.196;20.952;2023-08-12T07:10:42;10.52;;;3.33;;
34317;SDS011;20582;52.196;20.952;2023-08-12T07:13:08;9.60;;;3.58;;
34317;SDS011;20582;52.196;20.952;2023-08-12T07:15:35;7.18;;;2.97;;
34317;SDS011;20582;52.196;20.952;2023-08-12T07:18:01;12.90;;;3.10;;
34317;SDS011;20582;52.196;20.952;2023-08-12T07:20:27;7.40;;;3.05;;
34317;SDS011;20582;52.196;20.952;2023-08-12T07:22:53;8.05;;;3.10;;
34317;SDS011;20582;52.196;20.952;2023-08-12T07:25:19;7.57;;;3.30;;
34317;SDS011;20582;52.196;20.952;2023-08-12T07:27:45;8.13;;;3.40;;
34317;SDS011;20582;52.196;20.952;2023-08-12T07:30:11;8.82;;;3.17;;
34317;SDS011;20582;52.196;20.952;2023-08-12T07:32:37;12.25;;;3.50;;
34317;SDS011;20582;52.196;20.952;2023-08-12T07:35:04;8.48;;;3.10;;
34317;SDS011;20582;52.196;20.952;2023-08-12T07:37:33;12.43;;;3.53;;
34317;SDS011;20582;52.196;20.952;2023-08-12T07:39:59;8.73;;;3.13;;
34317;SDS011;20582;52.196;20.952;2023-08-12T07:42:26;11.07;;;3.72;;
34317;SDS011;20582;52.196;20.952;2023-08-12T07:44:51;11.30;;;3.22;;
34317;SDS011;20582;52.196;20.952;2023-08-12T07:47:17;8.93;;;3.28;;
34317;SDS011;20582;52.196;20.952;2023-08-12T07:49:44;7.45;;;2.83;;
34317;SDS011;20582;52.196;20.952;2023-08-12T07:52:10;7.22;;;3.08;;
34317;SDS011;20582;52.196;20.952;2023-08-12T07:54:36;9.60;;;2.80;;
34317;SDS011;20582;52.196;20.952;2023-08-12T07:57:02;7.45;;;3.08;;
34317;SDS011;20582;52.196;20.952;2023-08-12T07:59:28;9.55;;;3.10;;
34317;SDS011;20582;52.196;20.952;2023-08-12T08:01:54;10.25;;;2.70;;
34317;SDS011;20582;52.196;20.952;2023-08-12T08:04:20;7.82;;;3.03;;
34317;SDS011;20582;52.196;20.952;2023-08-12T08:06:46;9.23;;;2.88;;
34317;SDS011;20582;52.196;20.952;2023-08-12T08:09:12;8.90;;;2.97;;
34317;SDS011;20582;52.196;20.952;2023-08-12T08:11:38;7.55;;;2.80;;
34317;SDS011;20582;52.196;20.952;2023-08-12T08:14:04;8.50;;;2.70;;
34317;SDS011;20582;52.196;20.952;2023-08-12T08:16:30;6.82;;;2.60;;
34317;SDS011;20582;52.196;20.952;2023-08-12T08:18:56;6.90;;;2.65;;
34317;SDS011;20582;52.196;20.952;2023-08-12T08:21:22;8.25;;;2.58;;
34317;SDS011;20582;52.196;20.952;2023-08-12T08:23:49;7.45;;;2.65;;
34317;SDS011;20582;52.196;20.952;2023-08-12T08:26:15;7.95;;;2.83;;
34317;SDS011;20582;52.196;20.952;2023-08-12T08:28:41;8.90;;;2.88;;
34317;SDS011;20582;52.196;20.952;2023-08-12T08:31:07;10.27;;;2.97;;
34317;SDS011;20582;52.196;20.952;2023-08-12T08:33:34;5.55;;;2.38;;
34317;SDS011;20582;52.196;20.952;2023-08-12T08:36:00;8.25;;;2.90;;
34317;SDS011;20582;52.196;20.952;2023-08-12T08:38:26;9.23;;;2.75;;
34317;SDS011;20582;52.196;20.952;2023-08-12T08:40:52;5.25;;;2.53;;
34317;SDS011;20582;52.196;20.952;2023-08-12T08:43:21;11.85;;;2.75;;
34317;SDS011;20582;52.196;20.952;2023-08-12T08:45:49;7.63;;;2.80;;
34317;SDS011;20582;52.196;20.952;2023-08-12T08:48:15;9.20;;;3.13;;
34317;SDS011;20582;52.196;20.952;2023-08-12T08:50:41;8.15;;;2.53;;
34317;SDS011;20582;52.196;20.952;2023-08-12T08:53:07;7.03;;;2.47;;
34317;SDS011;20582;52.196;20.952;2023-08-12T08:55:33;6.40;;;2.60;;
34317;SDS011;20582;52.196;20.952;2023-08-12T08:57:59;9.32;;;3.95;;
34317;SDS011;20582;52.196;20.952;2023-08-12T09:00:25;8.38;;;3.15;;
34317;SDS011;20582;52.196;20.952;2023-08-12T09:02:52;7.57;;;2.90;;
34317;SDS011;20582;52.196;20.952;2023-08-12T09:05:19;9.20;;;3.10;;
34317;SDS011;20582;52.196;20.952;2023-08-12T09:07:45;5.32;;;2.60;;
34317;SDS011;20582;52.196;20.952;2023-08-12T09:10:12;8.07;;;2.65;;
34317;SDS011;20582;52.196;20.952;2023-08-12T09:12:38;7.20;;;2.80;;
34317;SDS011;20582;52.196;20.952;2023-08-12T09:15:04;8.05;;;2.95;;
34317;SDS011;20582;52.196;20.952;2023-08-12T09:17:31;5.75;;;2.65;;
34317;SDS011;20582;52.196;20.952;2023-08-12T09:19:58;8.60;;;3.00;;
34317;SDS011;20582;52.196;20.952;2023-08-12T09:22:24;8.77;;;2.92;;
34317;SDS011;20582;52.196;20.952;2023-08-12T09:24:57;6.13;;;3.03;;
34317;SDS011;20582;52.196;20.952;2023-08-12T09:27:23;7.18;;;3.13;;
34317;SDS011;20582;52.196;20.952;2023-08-12T09:29:49;6.85;;;3.22;;
34317;SDS011;20582;52.196;20.952;2023-08-12T09:32:19;6.90;;;3.30;;
34317;SDS011;20582;52.196;20.952;2023-08-12T09:34:49;7.72;;;3.40;;
34317;SDS011;20582;52.196;20.952;2023-08-12T09:37:16;8.15;;;3.50;;
34317;SDS011;20582;52.196;20.952;2023-08-12T09:39:42;6.90;;;3.50;;
34317;SDS011;20582;52.196;20.952;2023-08-12T09:42:08;8.07;;;3.30;;
34317;SDS011;20582;52.196;20.952;2023-08-12T09:44:38;7.25;;;3.72;;
34317;SDS011;20582;52.196;20.952;2023-08-12T09:47:05;8.65;;;3.47;;
34317;SDS011;20582;52.196;20.952;2023-08-12T09:49:31;6.70;;;3.38;;
34317;SDS011;20582;52.196;20.952;2023-08-12T09:51:57;9.13;;;3.38;;
34317;SDS011;20582;52.196;20.952;2023-08-12T09:54:26;7.05;;;3.75;;
34317;SDS011;20582;52.196;20.952;2023-08-12T09:56:54;7.97;;;3.55;;
34317;SDS011;20582;52.196;20.952;2023-08-12T09:59:21;7.45;;;3.63;;
34317;SDS011;20582;52.196;20.952;2023-08-12T10:01:51;6.32;;;3.45;;
34317;SDS011;20582;52.196;20.952;2023-08-12T10:04:18;7.03;;;3.40;;
34317;SDS011;20582;52.196;20.952;2023-08-12T10:06:47;7.17;;;3.60;;
34317;SDS011;20582;52.196;20.952;2023-08-12T10:09:14;7.45;;;3.40;;
34317;SDS011;20582;52.196;20.952;2023-08-12T10:11:41;7.07;;;3.80;;
34317;SDS011;20582;52.196;20.952;2023-08-12T10:14:08;6.90;;;3.58;;
34317;SDS011;20582;52.196;20.952;2023-08-12T10:16:35;6.43;;;3.22;;
34317;SDS011;20582;52.196;20.952;2023-08-12T10:19:02;6.35;;;3.53;;
34317;SDS011;20582;52.196;20.952;2023-08-12T10:21:30;8.65;;;3.05;;
34317;SDS011;20582;52.196;20.952;2023-08-12T10:23:57;6.88;;;2.97;;
34317;SDS011;20582;52.196;20.952;2023-08-12T10:26:27;7.95;;;3.30;;
34317;SDS011;20582;52.196;20.952;2023-08-12T10:28:53;7.60;;;3.33;;
34317;SDS011;20582;52.196;20.952;2023-08-12T10:31:19;7.53;;;3.40;;
34317;SDS011;20582;52.196;20.952;2023-08-12T10:33:46;7.15;;;3.83;;
34317;SDS011;20582;52.196;20.952;2023-08-12T10:36:14;6.27;;;3.93;;
34317;SDS011;20582;52.196;20.952;2023-08-12T10:38:41;9.25;;;4.05;;
34317;SDS011;20582;52.196;20.952;2023-08-12T10:41:17;6.25;;;3.60;;
34317;SDS011;20582;52.196;20.952;2023-08-12T10:43:55;8.82;;;3.58;;
34317;SDS011;20582;52.196;20.952;2023-08-12T10:46:34;6.50;;;3.40;;
34317;SDS011;20582;52.196;20.952;2023-08-12T10:49:07;8.68;;;3.45;;
34317;SDS011;20582;52.196;20.952;2023-08-12T11:02:22;6.93;;;2.72;;
34317;SDS011;20582;52.196;20.952;2023-08-12T11:04:49;7.53;;;2.78;;
34317;SDS011;20582;52.196;20.952;2023-08-12T11:07:19;7.95;;;2.90;;
34317;SDS011;20582;52.196;20.952;2023-08-12T11:09:45;7.22;;;2.70;;
34317;SDS011;20582;52.196;20.952;2023-08-12T11:12:16;7.45;;;2.70;;
34317;SDS011;20582;52.196;20.952;2023-08-12T11:14:46;7.15;;;2.78;;
34317;SDS011;20582;52.196;20.952;2023-08-12T11:17:13;6.20;;;2.55;;
34317;SDS011;20582;52.196;20.952;2023-08-12T11:19:40;6.68;;;2.97;;
34317;SDS011;20582;52.196;20.952;2023-08-12T11:22:06;10.40;;;2.55;;
34317;SDS011;20582;52.196;20.952;2023-08-12T11:24:33;7.65;;;2.92;;
34317;SDS011;20582;52.196;20.952;2023-08-12T11:27:01;8.55;;;2.78;;
34317;SDS011;20582;52.196;20.952;2023-08-12T11:29:27;9.23;;;2.97;;
34317;SDS011;20582;52.196;20.952;2023-08-12T11:31:53;7.63;;;2.97;;
34317;SDS011;20582;52.196;20.952;2023-08-12T11:34:19;6.93;;;3.13;;
34317;SDS011;20582;52.196;20.952;2023-08-12T11:36:45;6.13;;;2.80;;
34317;SDS011;20582;52.196;20.952;2023-08-12T11:39:11;7.30;;;3.10;;
34317;SDS011;20582;52.196;20.952;2023-08-12T11:41:37;5.57;;;3.00;;
34317;SDS011;20582;52.196;20.952;2023-08-12T11:44:03;10.65;;;3.60;;
34317;SDS011;20582;52.196;20.952;2023-08-12T11:46:32;5.43;;;2.88;;
34317;SDS011;20582;52.196;20.952;2023-08-12T11:48:58;5.95;;;3.20;;
34317;SDS011;20582;52.196;20.952;2023-08-12T11:51:24;6.97;;;2.95;;
34317;SDS011;20582;52.196;20.952;2023-08-12T11:53:50;5.72;;;2.63;;
34317;SDS011;20582;52.196;20.952;2023-08-12T11:56:16;9.35;;;3.08;;
34317;SDS011;20582;52.196;20.952;2023-08-12T11:58:42;4.00;;;2.90;;
34317;SDS011;20582;52.196;20.952;2023-08-12T12:01:09;7.63;;;3.10;;
34317;SDS011;20582;52.196;20.952;2023-08-12T12:03:35;5.35;;;2.88;;
34317;SDS011;20582;52.196;20.952;2023-08-12T12:06:01;4.40;;;2.80;;
34317;SDS011;20582;52.196;20.952;2023-08-12T12:08:30;5.53;;;3.08;;
34317;SDS011;20582;52.196;20.952;2023-08-12T12:10:56;8.40;;;3.20;;
34317;SDS011;20582;52.196;20.952;2023-08-12T12:13:23;9.70;;;3.00;;
34317;SDS011;20582;52.196;20.952;2023-08-12T12:15:50;5.93;;;2.80;;
34317;SDS011;20582;52.196;20.952;2023-08-12T12:18:18;5.25;;;2.80;;
34317;SDS011;20582;52.196;20.952;2023-08-12T12:20:54;5.82;;;2.83;;
34317;SDS011;20582;52.196;20.952;2023-08-12T12:23:20;5.35;;;3.08;;
34317;SDS011;20582;52.196;20.952;2023-08-12T12:25:46;7.75;;;3.20;;
34317;SDS011;20582;52.196;20.952;2023-08-12T12:28:12;5.43;;;3.55;;
34317;SDS011;20582;52.196;20.952;2023-08-12T12:30:38;6.28;;;3.33;;
34317;SDS011;20582;52.196;20.952;2023-08-12T12:33:04;5.50;;;3.22;;
34317;SDS011;20582;52.196;20.952;2023-08-12T12:35:30;5.00;;;2.60;;
34317;SDS011;20582;52.196;20.952;2023-08-12T12:37:56;8.15;;;4.28;;
34317;SDS011;20582;52.196;20.952;2023-08-12T12:40:22;7.45;;;2.83;;
34317;SDS011;20582;52.196;20.952;2023-08-12T12:42:48;6.45;;;3.08;;
34317;SDS011;20582;52.196;20.952;2023-08-12T12:45:23;6.55;;;2.83;;
34317;SDS011;20582;52.196;20.952;2023-08-12T12:47:49;6.45;;;2.83;;
34317;SDS011;20582;52.196;20.952;2023-08-12T12:50:15;6.88;;;3.00;;
34317;SDS011;20582;52.196;20.952;2023-08-12T12:52:42;7.90;;;2.72;;
34317;SDS011;20582;52.196;20.952;2023-08-12T12:55:09;6.78;;;3.00;;
34317;SDS011;20582;52.196;20.952;2023-08-12T12:57:35;7.05;;;2.85;;
34317;SDS011;20582;52.196;20.952;2023-08-12T13:00:01;5.47;;;2.30;;
34317;SDS011;20582;52.196;20.952;2023-08-12T13:02:29;7.57;;;2.75;;
34317;SDS011;20582;52.196;20.952;2023-08-12T13:04:55;7.03;;;2.67;;
34317;SDS011;20582;52.196;20.952;2023-08-12T13:07:21;6.40;;;2.60;;
34317;SDS011;20582;52.196;20.952;2023-08-12T13:09:47;7.03;;;3.10;;
34317;SDS011;20582;52.196;20.952;2023-08-12T13:12:13;7.20;;;2.60;;
34317;SDS011;20582;52.196;20.952;2023-08-12T13:14:39;6.22;;;2.90;;
34317;SDS011;20582;52.196;20.952;2023-08-12T13:17:05;5.90;;;2.60;;
34317;SDS011;20582;52.196;20.952;2023-08-12T13:19:31;6.05;;;2.70;;
34317;SDS011;20582;52.196;20.952;2023-08-12T13:21:57;6.30;;;2.97;;
34317;SDS011;20582;52.196;20.952;2023-08-12T13:24:23;7.43;;;2.70;;
34317;SDS011;20582;52.196;20.952;2023-08-12T13:26:49;5.55;;;2.60;;
34317;SDS011;20582;52.196;20.952;2023-08-12T13:29:17;4.95;;;2.42;;
34317;SDS011;20582;52.196;20.952;2023-08-12T13:31:43;8.55;;;2.80;;
34317;SDS011;20582;52.196;20.952;2023-08-12T13:34:09;8.50;;;2.70;;
34317;SDS011;20582;52.196;20.952;2023-08-12T13:36:35;7.72;;;2.80;;
34317;SDS011;20582;52.196;20.952;2023-08-12T13:39:01;6.88;;;2.80;;
34317;SDS011;20582;52.196;20.952;2023-08-12T13:41:27;10.00;;;2.72;;
34317;SDS011;20582;52.196;20.952;2023-08-12T13:43:53;5.47;;;2.53;;
34317;SDS011;20582;52.196;20.952;2023-08-12T13:46:19;5.70;;;2.45;;
34317;SDS011;20582;52.196;20.952;2023-08-12T13:48:45;8.60;;;2.92;;
34317;SDS011;20582;52.196;20.952;2023-08-12T13:51:11;8.27;;;2.70;;
34317;SDS011;20582;52.196;20.952;2023-08-12T13:53:37;6.40;;;2.50;;
34317;SDS011;20582;52.196;20.952;2023-08-12T13:56:03;6.68;;;2.60;;
34317;SDS011;20582;52.196;20.952;2023-08-12T13:58:29;6.95;;;2.50;;
34317;SDS011;20582;52.196;20.952;2023-08-12T14:00:55;5.30;;;2.45;;
34317;SDS011;20582;52.196;20.952;2023-08-12T14:03:21;8.95;;;2.67;;
34317;SDS011;20582;52.196;20.952;2023-08-12T14:05:47;7.70;;;2.92;;
34317;SDS011;20582;52.196;20.952;2023-08-12T14:08:13;8.25;;;2.70;;
34317;SDS011;20582;52.196;20.952;2023-08-12T14:10:39;6.35;;;2.58;;
34317;SDS011;20582;52.196;20.952;2023-08-12T14:13:05;6.03;;;2.47;;
34317;SDS011;20582;52.196;20.952;2023-08-12T14:15:31;7.13;;;2.90;;
34317;SDS011;20582;52.196;20.952;2023-08-12T14:17:57;5.68;;;2.80;;
34317;SDS011;20582;52.196;20.952;2023-08-12T14:20:23;9.43;;;2.63;;
34317;SDS011;20582;52.196;20.952;2023-08-12T14:22:49;8.10;;;3.13;;
34317;SDS011;20582;52.196;20.952;2023-08-12T14:25:15;8.02;;;2.72;;
34317;SDS011;20582;52.196;20.952;2023-08-12T14:27:41;5.50;;;2.50;;
34317;SDS011;20582;52.196;20.952;2023-08-12T14:30:07;9.15;;;3.10;;
34317;SDS011;20582;52.196;20.952;2023-08-12T14:32:34;6.85;;;2.80;;
34317;SDS011;20582;52.196;20.952;2023-08-12T14:34:59;6.53;;;2.60;;
34317;SDS011;20582;52.196;20.952;2023-08-12T14:37:26;6.35;;;2.67;;